createdAt,value
2019-02-23T00:00:00.174Z,28.20
2019-02-23T00:04:03.658Z,25.20
2019-02-23T00:08:07.406Z,24.47
2019-02-23T00:12:10.706Z,26.57
2019-02-23T00:16:14.490Z,35.97
2019-02-23T00:20:18.226Z,30.00
2019-02-23T00:24:21.521Z,29.17
2019-02-23T00:28:25.542Z,30.00
2019-02-23T00:32:29.534Z,24.73
2019-02-23T00:36:33.277Z,29.80
2019-02-23T00:40:36.563Z,31.70
2019-02-23T00:44:39.874Z,30.80
2019-02-23T00:48:43.622Z,30.93
2019-02-23T00:52:47.346Z,31.53
2019-02-23T00:56:50.646Z,35.67
2019-02-23T01:00:54.366Z,33.67
2019-02-23T01:04:58.927Z,33.83
2019-02-23T01:09:02.835Z,35.43
2019-02-23T01:13:06.559Z,35.97
2019-02-23T01:17:09.930Z,33.00
2019-02-23T01:21:13.212Z,38.57
2019-02-23T01:25:16.510Z,40.97
2019-02-23T01:29:20.178Z,34.50
2019-02-23T01:33:23.770Z,39.70
2019-02-23T01:37:27.502Z,38.00
2019-02-23T01:41:31.063Z,40.90
2019-02-23T01:45:42.056Z,43.63
2019-02-23T01:49:41.458Z,42.57
2019-02-23T01:53:44.753Z,41.70
2019-02-23T01:57:48.045Z,48.53
2019-02-23T02:01:51.683Z,46.57
2019-02-23T02:05:55.596Z,41.83
2019-02-23T02:09:58.954Z,38.53
2019-02-23T02:14:02.494Z,40.33
2019-02-23T02:18:05.852Z,44.07
2019-02-23T02:22:09.667Z,40.00
2019-02-23T02:26:13.390Z,45.23
2019-02-23T02:30:16.687Z,47.30
2019-02-23T02:34:20.414Z,41.03
2019-02-23T02:38:23.703Z,41.33
2019-02-23T02:42:27.003Z,45.90
2019-02-23T02:46:30.287Z,45.07
2019-02-23T02:50:33.597Z,54.07
2019-02-23T02:54:36.896Z,43.90
2019-02-23T02:58:40.179Z,40.33
2019-02-23T03:02:43.474Z,44.90
2019-02-23T03:06:47.221Z,45.57
2019-02-23T03:10:50.518Z,52.60
2019-02-23T03:14:54.243Z,47.30
2019-02-23T03:18:57.963Z,44.77
2019-02-23T03:23:01.607Z,46.03
2019-02-23T03:27:05.342Z,52.83
2019-02-23T03:31:08.623Z,47.03
2019-02-23T03:35:11.923Z,48.90
2019-02-23T03:39:15.226Z,47.40
2019-02-23T03:43:18.959Z,49.73
2019-02-23T03:47:22.324Z,50.53
2019-02-23T03:51:25.643Z,49.50
2019-02-23T03:55:29.435Z,57.57
2019-02-23T03:59:32.715Z,56.50
2019-02-23T04:03:36.447Z,48.23
2019-02-23T04:07:39.782Z,44.90
2019-02-23T04:11:43.067Z,48.27
2019-02-23T04:15:46.370Z,46.57
2019-02-23T04:19:49.735Z,56.87
2019-02-23T04:23:55.232Z,56.83
2019-02-23T04:27:58.862Z,52.90
2019-02-23T04:32:02.151Z,58.77
2019-02-23T04:36:06.138Z,56.87
2019-02-23T04:40:09.950Z,54.50
2019-02-23T04:44:13.234Z,57.23
2019-02-23T04:48:16.972Z,58.43
2019-02-23T04:52:20.271Z,55.73
2019-02-23T04:56:23.949Z,50.00
2019-02-23T05:00:27.270Z,59.20
2019-02-23T05:04:30.567Z,58.67
2019-02-23T05:08:33.850Z,46.43
2019-02-23T05:12:37.587Z,57.00
2019-02-23T05:16:41.306Z,53.50
2019-02-23T05:20:44.615Z,51.37
2019-02-23T05:24:48.748Z,60.33
2019-02-23T05:28:52.977Z,49.77
2019-02-23T05:32:56.994Z,47.93
2019-02-23T05:37:00.731Z,52.67
2019-02-23T05:41:04.019Z,53.43
2019-02-23T05:45:07.450Z,52.83
2019-02-23T05:49:10.980Z,47.17
2019-02-23T05:53:15.030Z,49.67
2019-02-23T05:57:18.580Z,55.37
2019-02-23T06:01:21.872Z,53.10
2019-02-23T06:05:25.590Z,57.57
2019-02-23T06:09:28.920Z,53.33
2019-02-23T06:13:32.714Z,54.30
2019-02-23T06:17:36.361Z,60.83
2019-02-23T06:21:52.897Z,49.50
2019-02-23T06:25:44.675Z,52.70
2019-02-23T06:29:48.695Z,57.63
2019-02-23T06:33:52.342Z,57.50
2019-02-23T06:37:55.633Z,56.87
2019-02-23T06:41:59.358Z,51.17
2019-02-23T06:46:03.107Z,51.67
2019-02-23T06:50:06.475Z,46.50
2019-02-23T06:54:10.203Z,54.17
2019-02-23T06:58:13.918Z,52.27
2019-02-23T07:02:17.480Z,57.13
2019-02-23T07:06:21.487Z,52.87
2019-02-23T07:10:24.838Z,49.80
2019-02-23T07:14:28.164Z,51.83
2019-02-23T07:18:31.466Z,59.93
2019-02-23T07:22:35.198Z,55.30
2019-02-23T07:26:38.938Z,47.40
2019-02-23T07:30:42.225Z,55.27
2019-02-23T07:34:45.971Z,47.47
2019-02-23T07:38:50.166Z,46.93
2019-02-23T07:42:53.715Z,47.77
2019-02-23T07:46:57.134Z,47.90
2019-02-23T07:51:00.854Z,42.43
2019-02-23T07:55:04.234Z,50.20
2019-02-23T07:59:07.530Z,48.97
2019-02-23T08:03:10.830Z,48.00
2019-02-23T08:07:14.125Z,45.20
2019-02-23T08:11:17.522Z,44.10
2019-02-23T08:15:21.334Z,40.23
2019-02-23T08:19:24.625Z,42.27
2019-02-23T08:23:28.746Z,41.97
2019-02-23T08:27:32.463Z,39.70
2019-02-23T08:31:35.759Z,39.37
2019-02-23T08:35:39.054Z,39.93
2019-02-23T08:39:42.570Z,38.17
2019-02-23T08:43:45.874Z,36.90
2019-02-23T08:47:49.173Z,33.37
2019-02-23T08:51:52.468Z,35.83
2019-02-23T08:55:55.782Z,35.07
2019-02-23T08:59:59.526Z,31.00
2019-02-23T09:04:02.831Z,29.00
2019-02-23T09:08:06.138Z,31.53
2019-02-23T09:12:09.459Z,34.80
2019-02-23T09:16:13.182Z,28.97
2019-02-23T09:20:16.483Z,33.00
2019-02-23T09:24:20.511Z,29.57
2019-02-23T09:28:23.814Z,28.03
2019-02-23T09:32:27.186Z,26.10
2019-02-23T09:36:30.925Z,28.40
2019-02-23T09:40:34.210Z,31.07
2019-02-23T09:44:37.950Z,25.70
2019-02-23T09:48:41.678Z,21.60
2019-02-23T09:52:44.985Z,22.43
2019-02-23T09:56:48.721Z,22.60
2019-02-23T10:00:52.320Z,21.60
2019-02-23T10:04:56.060Z,23.10
2019-02-23T10:08:59.343Z,23.30
2019-02-23T10:13:02.677Z,22.47
2019-02-23T10:17:06.062Z,18.60
2019-02-23T10:21:09.355Z,18.93
2019-02-23T10:25:13.247Z,19.60
2019-02-23T10:29:16.546Z,18.53
2019-02-23T10:33:20.279Z,18.90
2019-02-23T10:37:23.570Z,18.47
2019-02-23T10:41:26.874Z,17.60
2019-02-23T10:45:30.962Z,19.27
2019-02-23T10:49:34.287Z,18.77
2019-02-23T10:53:37.594Z,18.77
2019-02-23T10:57:40.878Z,18.13
2019-02-23T11:01:44.258Z,17.27
2019-02-23T11:05:47.549Z,19.53
2019-02-23T11:09:51.434Z,18.73
2019-02-23T11:13:54.738Z,17.57
2019-02-23T11:17:58.338Z,19.47
2019-02-23T11:22:02.158Z,18.70
2019-02-23T11:26:05.454Z,19.13
2019-02-23T11:30:09.222Z,20.87
2019-02-23T11:34:12.526Z,18.13
2019-02-23T11:38:16.279Z,18.00
2019-02-23T11:42:19.638Z,19.33
2019-02-23T11:46:23.022Z,20.20
2019-02-23T11:50:26.309Z,18.53
2019-02-23T11:54:30.047Z,19.33
2019-02-23T11:58:33.778Z,21.00
2019-02-23T12:02:37.110Z,19.10
2019-02-23T12:06:40.402Z,17.90
2019-02-23T12:10:43.994Z,20.00
2019-02-23T12:14:47.470Z,17.07
2019-02-23T12:18:51.125Z,21.00
2019-02-23T12:22:54.417Z,19.60
2019-02-23T12:26:57.702Z,19.17
2019-02-23T12:31:01.002Z,19.40
2019-02-23T12:35:04.552Z,17.10
2019-02-23T12:39:07.854Z,16.73
2019-02-23T12:43:11.619Z,19.40
2019-02-23T12:47:14.914Z,22.37
2019-02-23T12:51:18.207Z,19.43
2019-02-23T12:55:21.774Z,22.63
2019-02-23T12:59:25.072Z,19.40
2019-02-23T13:03:28.614Z,18.20
2019-02-23T13:07:32.846Z,19.33
2019-02-23T13:11:36.602Z,16.37
2019-02-23T13:15:48.566Z,18.00
2019-02-23T13:19:58.660Z,18.53
2019-02-23T13:24:10.758Z,17.40
2019-02-23T13:28:28.538Z,15.57
2019-02-23T13:33:03.475Z,18.77
2019-02-23T13:37:12.996Z,17.27
2019-02-23T13:41:54.710Z,21.10
2019-02-23T13:46:14.323Z,18.57
2019-02-23T13:50:21.172Z,19.23
2019-02-23T13:55:20.536Z,18.40
2019-02-23T13:59:52.203Z,16.53
2019-02-23T14:04:17.035Z,18.60
2019-02-23T14:08:38.499Z,15.27
2019-02-23T14:13:25.515Z,19.83
2019-02-23T14:17:39.983Z,17.70
2019-02-23T14:22:14.390Z,17.10
2019-02-23T14:26:35.563Z,15.97
2019-02-23T14:30:47.262Z,19.00
2019-02-23T14:35:08.491Z,17.50
2019-02-23T14:39:37.073Z,15.30
2019-02-23T14:43:53.148Z,15.20
2019-02-23T14:48:21.837Z,15.27
2019-02-23T14:52:51.978Z,14.50
2019-02-23T14:57:31.794Z,13.93
2019-02-23T15:01:37.825Z,14.07
2019-02-23T15:05:56.186Z,14.23
2019-02-23T15:10:18.726Z,13.30
2019-02-23T15:14:32.798Z,13.80
2019-02-23T15:18:56.067Z,20.90
2019-02-23T15:23:11.221Z,13.80
2019-02-23T15:27:39.950Z,14.00
2019-02-23T15:32:01.307Z,17.23
2019-02-23T15:36:19.582Z,13.60
2019-02-23T15:40:47.966Z,14.30
2019-02-23T15:45:00.594Z,12.70
2019-02-23T15:49:34.241Z,15.47
2019-02-23T15:53:37.562Z,14.40
2019-02-23T15:57:40.854Z,14.30
2019-02-23T16:01:44.602Z,18.20
2019-02-23T16:05:48.332Z,14.77
2019-02-23T16:09:51.687Z,11.60
2019-02-23T16:13:55.666Z,16.43
2019-02-23T16:17:59.059Z,18.47
2019-02-23T16:22:02.378Z,14.13
2019-02-23T16:26:06.158Z,39.73
2019-02-23T16:30:10.098Z,15.57
2019-02-23T16:34:13.419Z,17.43
2019-02-23T16:38:17.003Z,16.83
2019-02-23T16:42:20.306Z,18.40
2019-02-23T16:46:24.130Z,17.63
2019-02-23T16:50:27.414Z,19.07
2019-02-23T16:54:30.710Z,18.23
2019-02-23T16:58:34.020Z,17.20
2019-02-23T17:02:37.751Z,25.57
2019-02-23T17:06:41.507Z,21.53
2019-02-23T17:10:44.810Z,15.47
2019-02-23T17:14:48.532Z,16.90
2019-02-23T17:18:52.664Z,21.83
2019-02-23T17:22:55.978Z,18.67
2019-02-23T17:26:59.498Z,16.90
2019-02-23T17:31:02.803Z,15.47
2019-02-23T17:35:06.623Z,19.60
2019-02-23T17:39:10.810Z,16.30
2019-02-23T17:43:14.115Z,17.37
2019-02-23T17:47:18.188Z,15.53
2019-02-23T17:51:21.470Z,18.83
2019-02-23T17:55:24.774Z,17.90
2019-02-23T17:59:28.539Z,18.80
2019-02-23T18:03:32.114Z,21.00
2019-02-23T18:07:35.870Z,19.47
2019-02-23T18:11:39.154Z,17.30
2019-02-23T18:15:42.470Z,20.27
2019-02-23T18:19:46.755Z,18.13
2019-02-23T18:23:50.994Z,21.13
2019-02-23T18:27:54.918Z,22.50
2019-02-23T18:31:58.538Z,19.30
2019-02-23T18:36:01.858Z,20.70
2019-02-23T18:40:05.362Z,16.63
2019-02-23T18:44:08.644Z,18.13
2019-02-23T18:48:11.942Z,19.03
2019-02-23T18:52:15.574Z,20.63
2019-02-23T18:56:18.874Z,20.13
2019-02-23T19:00:24.375Z,19.90
2019-02-23T19:04:27.190Z,20.73
2019-02-23T19:08:31.202Z,18.17
2019-02-23T19:12:34.914Z,21.03
2019-02-23T19:16:38.210Z,21.07
2019-02-23T19:20:42.002Z,20.63
2019-02-23T19:24:45.326Z,22.70
2019-02-23T19:28:48.610Z,25.03
2019-02-23T19:32:51.914Z,23.70
2019-02-23T19:36:55.639Z,24.43
2019-02-23T19:40:58.942Z,23.37
2019-02-23T19:45:02.733Z,23.53
2019-02-23T19:49:06.466Z,21.00
2019-02-23T19:53:09.750Z,24.83
2019-02-23T19:57:13.482Z,23.77
2019-02-23T20:01:17.230Z,24.93
2019-02-23T20:05:20.530Z,29.40
2019-02-23T20:09:24.286Z,23.43
2019-02-23T20:13:27.578Z,37.13
2019-02-23T20:17:30.871Z,26.83
2019-02-23T20:21:34.188Z,24.50
2019-02-23T20:25:37.495Z,26.97
2019-02-23T20:29:40.867Z,28.07
2019-02-23T20:33:44.863Z,23.87
2019-02-23T20:37:48.622Z,24.17
2019-02-23T20:41:51.935Z,26.57
2019-02-23T20:45:55.651Z,24.63
2019-02-23T20:49:59.611Z,29.23
2019-02-23T20:54:02.905Z,25.07
2019-02-23T20:58:06.274Z,25.67
2019-02-23T21:02:09.583Z,24.90
2019-02-23T21:06:12.866Z,26.27
2019-02-23T21:10:16.691Z,31.97
2019-02-23T21:14:19.995Z,31.13
2019-02-23T21:18:23.306Z,36.70
2019-02-23T21:22:27.078Z,35.03
2019-02-23T21:26:30.366Z,30.90
2019-02-23T21:30:33.663Z,33.40
2019-02-23T21:34:36.971Z,36.63
2019-02-23T21:38:40.254Z,30.10
2019-02-23T21:42:43.559Z,31.23
2019-02-23T21:46:46.854Z,31.40
2019-02-23T21:50:51.019Z,29.43
2019-02-23T21:54:54.437Z,30.77
2019-02-23T21:58:57.726Z,28.00
2019-02-23T22:03:01.467Z,30.07
2019-02-23T22:07:05.198Z,25.67
2019-02-23T22:11:08.510Z,32.63
2019-02-23T22:15:11.824Z,26.77
2019-02-23T22:19:15.454Z,28.87
2019-02-23T22:23:19.859Z,27.90
2019-02-23T22:27:31.158Z,25.07
2019-02-23T22:31:28.655Z,30.57
2019-02-23T22:35:33.027Z,31.73
2019-02-23T22:39:37.038Z,35.83
2019-02-23T22:43:40.757Z,31.70
2019-02-23T22:47:44.495Z,32.27
2019-02-23T22:51:47.798Z,31.33
2019-02-23T22:55:51.516Z,29.83
2019-02-23T22:59:54.830Z,36.07
2019-02-23T23:03:58.106Z,32.03
2019-02-23T23:08:01.786Z,27.40
2019-02-23T23:12:05.666Z,22.97
2019-02-23T23:16:08.948Z,31.60
2019-02-23T23:20:12.320Z,35.93
2019-02-23T23:24:16.182Z,35.23
2019-02-23T23:28:19.474Z,34.10
2019-02-23T23:32:23.205Z,34.20
2019-02-23T23:36:26.929Z,32.33
2019-02-23T23:40:30.232Z,29.30
2019-02-23T23:44:33.542Z,29.97
2019-02-23T23:48:36.918Z,30.93
2019-02-23T23:52:40.226Z,30.37
2019-02-23T23:56:43.530Z,31.00
